Time;durP1;ratioP1;P1;durP2;ratioP2;P2;SDS_P1;SDS_P2;PMS_P1;PMS_P2;Temp;Humidity;BMP_temperature;BMP_pressure;BME280_temperature;BME280_humidity;BME280_pressure;Samples;Min_cycle;Max_cycle;Signal;HPM_P1;HPM_P2
2022/01/13 00:02:14;;;;;;;346.23;55.15;;;4.30;99.90;;;;;;4958707;28;20038;-88
2022/01/13 00:04:40;;;;;;;371.85;58.38;;;3.40;99.90;;;;;;4957289;28;20080;-88
2022/01/13 00:07:06;;;;;;;397.25;60.90;;;4.40;99.90;;;;;;4927332;28;20045;-89
2022/01/13 00:09:32;;;;;;;384.83;56.50;;;4.30;99.90;;;;;;4941203;28;20377;-88
2022/01/13 00:11:58;;;;;;;428.23;59.13;;;3.80;99.90;;;;;;4956756;28;20121;-88
2022/01/13 00:14:38;;;;;;;419.88;60.63;;;4.30;99.90;;;;;;4958139;28;20042;-88
2022/01/13 00:17:22;;;;;;;436.27;58.20;;;4.50;99.90;;;;;;4956875;28;20133;-88
2022/01/13 00:19:57;;;;;;;438.50;58.08;;;3.80;99.90;;;;;;4957839;28;20092;-88
2022/01/13 00:22:39;;;;;;;458.80;63.00;;;3.60;99.90;;;;;;4958196;28;20724;-88
2022/01/13 00:25:08;;;;;;;462.75;62.17;;;3.40;99.90;;;;;;4958364;28;20034;-88
2022/01/13 00:27:37;;;;;;;456.35;62.60;;;3.40;99.90;;;;;;4942388;28;20042;-87
2022/01/13 00:30:03;;;;;;;468.40;64.53;;;3.40;99.90;;;;;;4942742;28;20484;-89
2022/01/13 00:32:32;;;;;;;493.00;65.75;;;3.40;99.90;;;;;;4927060;28;20436;-88
2022/01/13 00:34:58;;;;;;;405.80;56.72;;;3.40;99.90;;;;;;4972165;28;20038;-88
2022/01/13 00:37:24;;;;;;;473.67;59.00;;;3.40;99.90;;;;;;4974293;28;20038;-88
2022/01/13 00:39:50;;;;;;;453.58;54.78;;;4.30;99.90;;;;;;4957243;28;20061;-89
2022/01/13 00:42:16;;;;;;;498.23;66.97;;;3.40;99.90;;;;;;4965177;28;20090;-88
2022/01/13 00:44:43;;;;;;;497.17;61.90;;;3.50;99.90;;;;;;4993415;28;20072;-88
2022/01/13 00:47:10;;;;;;;475.02;60.45;;;3.90;99.90;;;;;;4948361;28;20053;-89
2022/01/13 00:49:36;;;;;;;493.65;62.75;;;4.10;99.90;;;;;;4974422;28;20053;-89
2022/01/13 00:52:04;;;;;;;462.52;61.35;;;3.50;99.90;;;;;;4959994;28;20117;-88
2022/01/13 00:54:32;;;;;;;443.60;55.53;;;3.50;99.90;;;;;;4954147;28;20502;-88
2022/01/13 00:56:58;;;;;;;476.05;61.78;;;3.50;99.90;;;;;;4958279;28;20034;-88
2022/01/13 00:59:23;;;;;;;443.35;58.10;;;3.60;99.90;;;;;;4925395;28;20125;-88
2022/01/13 01:01:51;;;;;;;464.55;60.03;;;4.10;99.90;;;;;;4941507;28;20034;-88
2022/01/13 01:04:18;;;;;;;470.95;59.92;;;3.50;99.90;;;;;;4957310;28;20072;-88
2022/01/13 01:06:45;;;;;;;503.17;59.47;;;3.50;99.90;;;;;;4972366;28;20042;-89
2022/01/13 01:09:17;;;;;;;432.88;55.90;;;3.50;99.90;;;;;;4925642;28;20586;-88
2022/01/13 01:11:47;;;;;;;488.50;60.20;;;3.90;99.90;;;;;;4958772;28;20440;-87
2022/01/13 01:14:14;;;;;;;477.70;55.95;;;3.60;99.90;;;;;;4955291;28;20034;-87
2022/01/13 01:16:40;;;;;;;477.90;59.55;;;3.90;99.90;;;;;;4956865;28;20078;-87
2022/01/13 01:19:08;;;;;;;515.67;63.00;;;3.60;99.90;;;;;;4941569;28;20058;-88
2022/01/13 01:21:53;;;;;;;493.23;61.40;;;4.10;99.90;;;;;;4953322;28;20034;-89
2022/01/13 01:26:55;;;;;;;491.17;56.70;;;4.40;99.90;;;;;;4956902;28;20575;-88
2022/01/13 01:31:53;;;;;;;496.00;57.88;;;3.70;99.90;;;;;;4973842;28;20052;-88
2022/01/13 01:37:15;;;;;;;474.80;54.40;;;3.90;99.90;;;;;;4972391;28;20045;-88
2022/01/13 01:39:43;;;;;;;470.00;55.45;;;3.70;99.90;;;;;;4925510;28;20046;-88
2022/01/13 01:42:09;;;;;;;422.77;53.47;;;3.70;99.90;;;;;;4956256;28;20030;-88
2022/01/13 01:44:42;;;;;;;483.38;56.95;;;3.70;99.90;;;;;;4972239;28;20116;-88
2022/01/13 01:47:13;;;;;;;478.25;53.65;;;3.70;99.90;;;;;;4941268;28;20121;-88
2022/01/13 01:49:44;;;;;;;430.70;52.05;;;3.70;99.90;;;;;;4955796;28;20042;-88
2022/01/13 01:52:13;;;;;;;429.73;53.00;;;4.60;99.90;;;;;;4955894;28;20057;-88
2022/01/13 01:54:39;;;;;;;433.38;52.88;;;3.80;99.90;;;;;;4956739;28;20065;-88
2022/01/13 01:57:05;;;;;;;406.35;49.08;;;3.80;99.90;;;;;;4956507;28;20495;-88
2022/01/13 01:59:34;;;;;;;440.02;52.78;;;3.80;99.90;;;;;;4955198;28;20042;-88
2022/01/13 02:02:00;;;;;;;454.58;52.92;;;3.80;99.90;;;;;;4975234;28;20435;-88
2022/01/13 02:04:27;;;;;;;434.13;49.10;;;3.80;99.90;;;;;;4940236;28;20026;-88
2022/01/13 02:06:55;;;;;;;424.45;51.28;;;3.90;99.90;;;;;;4956103;28;20042;-88
2022/01/13 02:09:21;;;;;;;416.55;51.00;;;4.40;99.90;;;;;;4940817;28;20042;-88
2022/01/13 02:11:53;;;;;;;415.05;50.17;;;4.20;99.90;;;;;;4940397;28;20050;-88
2022/01/13 02:16:59;;;;;;;478.85;54.50;;;3.90;99.90;;;;;;4969473;28;20046;-88
2022/01/13 02:19:25;;;;;;;432.98;50.58;;;3.90;99.90;;;;;;4972676;28;20042;-88
2022/01/13 02:21:51;;;;;;;411.00;47.45;;;4.70;99.90;;;;;;4940110;28;20502;-89
2022/01/13 02:24:17;;;;;;;386.60;48.65;;;3.90;99.90;;;;;;4924696;28;20169;-88
2022/01/13 02:26:43;;;;;;;374.63;47.35;;;4.60;99.90;;;;;;4938921;28;20120;-88
2022/01/13 02:29:09;;;;;;;442.45;50.15;;;4.20;99.90;;;;;;4940053;28;20487;-88
2022/01/13 02:31:35;;;;;;;419.58;52.42;;;5.10;99.90;;;;;;4954402;28;20038;-89
2022/01/13 02:34:00;;;;;;;365.10;44.03;;;4.80;99.90;;;;;;4924151;28;20104;-88
2022/01/13 02:36:29;;;;;;;380.25;46.40;;;4.10;99.90;;;;;;4939233;28;20046;-87
2022/01/13 02:38:55;;;;;;;336.73;43.50;;;4.00;99.90;;;;;;4970730;28;20042;-88
2022/01/13 02:41:24;;;;;;;404.45;46.55;;;4.50;99.90;;;;;;4956935;28;20448;-88
2022/01/13 02:43:56;;;;;;;346.17;45.95;;;4.00;99.90;;;;;;4972868;28;20085;-88
2022/01/13 02:49:11;;;;;;;352.40;40.55;;;4.00;99.90;;;;;;4957791;28;20125;-88
2022/01/13 02:51:38;;;;;;;355.98;45.13;;;4.10;99.90;;;;;;4949955;28;20034;-88
2022/01/13 02:54:05;;;;;;;353.58;45.00;;;4.30;99.90;;;;;;4962851;28;20492;-87
2022/01/13 02:56:31;;;;;;;371.75;43.70;;;4.10;99.90;;;;;;4968233;28;20439;-88
2022/01/13 02:58:57;;;;;;;331.80;42.15;;;4.10;99.90;;;;;;4974844;28;20038;-88
2022/01/13 03:01:23;;;;;;;352.98;40.45;;;4.10;99.90;;;;;;4959229;28;20188;-88
2022/01/13 03:03:49;;;;;;;334.45;41.83;;;4.40;99.90;;;;;;4957454;28;20120;-87
2022/01/13 03:06:21;;;;;;;339.05;40.85;;;4.70;99.90;;;;;;4956772;28;20121;-88
2022/01/13 03:08:47;;;;;;;302.75;39.53;;;4.10;99.90;;;;;;4958588;28;20113;-88
2022/01/13 03:11:15;;;;;;;263.83;37.13;;;5.00;99.90;;;;;;4957293;28;20039;-88
2022/01/13 03:13:41;;;;;;;304.15;40.47;;;4.10;99.90;;;;;;4958250;28;20042;-88
2022/01/13 03:16:15;;;;;;;277.02;36.85;;;4.20;99.90;;;;;;4958015;28;20738;-88
2022/01/13 03:18:41;;;;;;;258.02;36.30;;;5.00;99.90;;;;;;4971879;28;20038;-88
2022/01/13 03:21:08;;;;;;;286.33;37.35;;;4.20;99.90;;;;;;4926312;28;20484;-88
2022/01/13 03:23:35;;;;;;;249.75;35.45;;;4.20;99.90;;;;;;4943166;28;20400;-88
2022/01/13 03:26:01;;;;;;;302.33;36.30;;;4.60;99.90;;;;;;4957999;28;20046;-88
2022/01/13 03:31:13;;;;;;;299.48;39.83;;;5.30;99.90;;;;;;4953157;28;20049;-88
2022/01/13 03:33:39;;;;;;;285.73;37.35;;;4.20;99.90;;;;;;4959389;28;20042;-88
2022/01/13 03:36:04;;;;;;;307.45;37.95;;;4.20;99.90;;;;;;4936064;28;20116;-89
2022/01/13 03:38:31;;;;;;;299.10;36.25;;;4.20;99.90;;;;;;4959735;28;20551;-89
2022/01/13 03:40:57;;;;;;;296.08;38.42;;;4.70;99.90;;;;;;4972091;28;20746;-88
2022/01/13 03:43:22;;;;;;;359.27;40.55;;;4.90;99.90;;;;;;4942551;28;20038;-88
2022/01/13 03:45:48;;;;;;;328.95;38.72;;;4.90;99.90;;;;;;4943185;28;20121;-88
2022/01/13 03:48:14;;;;;;;336.92;40.63;;;4.20;99.90;;;;;;4942608;28;20050;-88
2022/01/13 03:50:41;;;;;;;356.48;44.75;;;5.00;99.90;;;;;;4942879;28;20438;-89
2022/01/13 03:53:27;;;;;;;297.10;36.10;;;4.20;99.90;;;;;;4956566;28;20125;-88
2022/01/13 03:56:10;;;;;;;271.85;34.05;;;4.20;99.90;;;;;;4972451;28;20046;-88
2022/01/13 03:58:58;;;;;;;284.35;38.40;;;4.20;99.90;;;;;;4958427;28;20058;-88
2022/01/13 04:02:00;;;;;;;240.15;33.33;;;4.20;99.90;;;;;;4955656;28;20117;-88
2022/01/13 04:04:27;;;;;;;214.05;31.15;;;4.10;99.90;;;;;;4957808;28;20038;-88
2022/01/13 04:07:08;;;;;;;246.20;34.45;;;4.10;99.90;;;;;;4957816;28;21721;-88
2022/01/13 04:09:34;;;;;;;281.00;37.05;;;4.10;99.90;;;;;;4957658;28;20504;-89
2022/01/13 04:12:04;;;;;;;278.25;36.30;;;4.10;99.90;;;;;;4958025;28;20117;-88
2022/01/13 04:14:38;;;;;;;210.63;31.23;;;4.10;99.90;;;;;;4957670;28;20142;-89
2022/01/13 04:17:04;;;;;;;233.75;34.55;;;4.10;99.90;;;;;;4957308;28;20035;-88
2022/01/13 04:19:30;;;;;;;226.77;33.05;;;4.10;99.90;;;;;;4956685;28;20484;-88
2022/01/13 04:21:56;;;;;;;240.73;33.20;;;4.10;99.90;;;;;;4942323;28;20042;-88
2022/01/13 04:24:21;;;;;;;199.80;30.58;;;4.40;99.90;;;;;;4925993;28;20034;-88
2022/01/13 04:26:47;;;;;;;235.07;32.55;;;5.10;99.90;;;;;;4957313;28;20184;-88
2022/01/13 04:31:45;;;;;;;224.80;29.30;;;4.10;99.90;;;;;;4972390;28;20042;-89
2022/01/13 04:34:11;;;;;;;189.13;29.77;;;4.10;99.90;;;;;;4957660;28;20063;-89
2022/01/13 04:36:38;;;;;;;199.57;29.95;;;4.10;99.90;;;;;;4954480;28;20042;-89
2022/01/13 04:39:05;;;;;;;170.18;27.42;;;4.00;99.90;;;;;;4955819;28;20104;-88
2022/01/13 04:41:36;;;;;;;176.70;27.23;;;5.10;99.90;;;;;;4941857;28;20042;-89
2022/01/13 04:44:11;;;;;;;166.02;26.92;;;4.00;99.90;;;;;;4971766;28;20049;-89
2022/01/13 04:46:37;;;;;;;169.23;28.25;;;4.00;99.90;;;;;;4956766;28;20034;-88
2022/01/13 04:49:04;;;;;;;167.65;29.80;;;4.00;99.90;;;;;;4957298;28;20041;-88
2022/01/13 04:51:30;;;;;;;156.88;27.60;;;4.00;99.90;;;;;;4957743;28;20039;-89
2022/01/13 04:53:56;;;;;;;147.13;24.33;;;4.00;99.90;;;;;;4927477;28;20034;-88
2022/01/13 04:56:42;;;;;;;142.00;27.15;;;4.20;99.90;;;;;;4941570;28;20038;-88
2022/01/13 04:59:08;;;;;;;177.27;27.63;;;4.20;99.90;;;;;;4954387;28;20049;-88
2022/01/13 05:01:35;;;;;;;154.65;27.63;;;4.50;99.90;;;;;;4972565;28;20499;-88
2022/01/13 05:04:01;;;;;;;150.88;28.85;;;4.50;99.90;;;;;;4972143;28;20078;-88
2022/01/13 05:06:26;;;;;;;154.20;27.73;;;3.90;99.90;;;;;;4952855;28;20038;-88
2022/01/13 05:08:52;;;;;;;166.35;28.63;;;3.90;99.90;;;;;;4924674;28;20035;-88
2022/01/13 05:11:18;;;;;;;154.65;27.75;;;4.90;99.90;;;;;;4956560;28;20048;-88
2022/01/13 05:13:45;;;;;;;173.80;30.00;;;4.10;99.90;;;;;;4971772;28;20125;-89
2022/01/13 05:16:20;;;;;;;131.95;24.63;;;3.90;99.90;;;;;;4956318;28;20159;-87
2022/01/13 05:21:27;;;;;;;167.77;28.30;;;4.30;99.90;;;;;;4989148;28;20034;-88
2022/01/13 05:23:53;;;;;;;169.43;30.55;;;5.10;99.90;;;;;;4957712;28;20037;-87
2022/01/13 05:26:21;;;;;;;166.80;28.73;;;4.50;99.90;;;;;;4954498;28;20030;-88
2022/01/13 05:28:47;;;;;;;184.20;29.90;;;3.90;99.90;;;;;;4956328;28;20575;-88
2022/01/13 05:31:13;;;;;;;174.77;30.13;;;4.80;99.90;;;;;;4939670;28;20129;-88
2022/01/13 05:33:39;;;;;;;166.25;28.55;;;4.90;99.90;;;;;;4952532;28;20103;-88
2022/01/13 05:36:05;;;;;;;188.60;29.98;;;3.90;99.90;;;;;;4924772;28;20696;-89
2022/01/13 05:38:31;;;;;;;192.43;32.25;;;3.80;99.90;;;;;;4923467;28;20126;-88
2022/01/13 05:40:58;;;;;;;191.40;29.13;;;3.90;99.90;;;;;;4941220;28;20480;-90
2022/01/13 05:43:24;;;;;;;186.23;32.13;;;4.80;99.90;;;;;;4955302;28;20038;-88
2022/01/13 05:45:50;;;;;;;155.32;28.10;;;3.80;99.90;;;;;;4955671;28;20464;-89
2022/01/13 05:48:16;;;;;;;177.18;29.77;;;3.90;99.90;;;;;;4957030;28;20050;-88
2022/01/13 05:50:42;;;;;;;144.50;26.73;;;4.70;99.90;;;;;;4988978;28;20062;-89
2022/01/13 05:53:08;;;;;;;126.97;23.40;;;3.80;99.90;;;;;;4970129;28;20049;-89
2022/01/13 05:55:34;;;;;;;172.63;28.73;;;4.30;99.90;;;;;;4947110;28;20052;-89
2022/01/13 05:58:00;;;;;;;136.77;25.35;;;3.80;99.90;;;;;;4983995;28;20061;-88
2022/01/13 06:00:25;;;;;;;140.32;25.63;;;3.70;99.90;;;;;;4972621;28;20034;-88
2022/01/13 06:02:52;;;;;;;138.13;24.52;;;4.40;99.90;;;;;;4986778;28;20047;-89
2022/01/13 06:05:18;;;;;;;130.25;24.10;;;3.70;99.90;;;;;;4971930;28;20046;-88
2022/01/13 06:07:45;;;;;;;135.63;26.35;;;3.70;99.90;;;;;;4957654;28;20046;-88
2022/01/13 06:10:15;;;;;;;143.77;26.73;;;4.20;99.90;;;;;;4973486;28;20034;-88
2022/01/13 06:12:40;;;;;;;122.38;23.73;;;4.10;99.90;;;;;;4956400;28;20038;-89
2022/01/13 06:15:09;;;;;;;145.68;26.70;;;3.60;99.90;;;;;;4924426;28;20538;-88
2022/01/13 06:17:36;;;;;;;131.15;24.10;;;3.60;99.90;;;;;;4969237;28;20066;-88
2022/01/13 06:20:04;;;;;;;111.88;25.45;;;3.60;99.90;;;;;;4971421;28;20499;-88
2022/01/13 06:22:30;;;;;;;126.45;25.10;;;3.60;99.90;;;;;;4956265;28;20038;-87
2022/01/13 06:24:56;;;;;;;142.50;26.95;;;4.00;99.90;;;;;;4968204;28;20089;-88
2022/01/13 06:27:22;;;;;;;146.77;25.45;;;3.60;99.90;;;;;;4924743;28;20045;-89
2022/01/13 06:29:50;;;;;;;148.02;25.75;;;3.90;99.90;;;;;;4952564;28;20038;-89
2022/01/13 06:32:16;;;;;;;148.32;25.38;;;3.80;99.90;;;;;;4924818;28;20046;-88
2022/01/13 06:34:42;;;;;;;98.50;19.98;;;3.80;99.90;;;;;;4971733;28;20077;-87
2022/01/13 06:37:08;;;;;;;173.52;29.02;;;3.60;99.90;;;;;;4988128;28;20065;-88
2022/01/13 06:39:34;;;;;;;175.82;30.75;;;3.60;99.90;;;;;;4927871;28;20087;-88
2022/01/13 06:41:59;;;;;;;150.73;27.73;;;3.60;99.90;;;;;;4931301;28;20039;-88
2022/01/13 06:44:25;;;;;;;164.93;26.30;;;4.50;99.90;;;;;;4910550;28;20039;-88
2022/01/13 06:46:51;;;;;;;155.18;27.60;;;4.40;99.90;;;;;;4920172;28;20041;-89
2022/01/13 06:49:16;;;;;;;168.23;29.00;;;4.40;99.90;;;;;;4919114;28;20043;-88
2022/01/13 06:51:42;;;;;;;159.82;28.95;;;4.50;99.90;;;;;;4928619;28;20030;-89
2022/01/13 06:54:08;;;;;;;196.55;31.45;;;3.70;99.90;;;;;;4926960;28;20139;-88
2022/01/13 06:56:34;;;;;;;175.25;31.58;;;4.30;99.90;;;;;;4908892;29;20043;-89
2022/01/13 06:59:04;;;;;;;173.93;28.58;;;3.60;99.90;;;;;;4943542;29;20460;-88
2022/01/13 07:01:30;;;;;;;179.70;28.92;;;3.60;99.90;;;;;;4915743;28;20031;-89
2022/01/13 07:03:56;;;;;;;157.80;28.80;;;3.70;99.90;;;;;;4917155;28;20042;-88
2022/01/13 07:06:21;;;;;;;160.13;28.85;;;3.60;99.90;;;;;;4950878;28;20391;-88
2022/01/13 07:08:47;;;;;;;154.40;29.88;;;4.30;99.90;;;;;;4943439;28;20039;-88
2022/01/13 07:11:13;;;;;;;148.95;28.83;;;3.60;99.90;;;;;;4932773;29;20039;-88
2022/01/13 07:13:38;;;;;;;123.90;26.98;;;3.70;99.90;;;;;;4938039;28;20051;-90
2022/01/13 07:16:04;;;;;;;157.23;28.48;;;3.70;99.90;;;;;;4947919;28;20106;-88
2022/01/13 07:18:38;;;;;;;178.15;30.02;;;3.70;99.90;;;;;;4935163;28;20039;-88
2022/01/13 07:21:08;;;;;;;170.30;29.08;;;4.40;99.90;;;;;;4935896;29;20050;-88
2022/01/13 07:23:35;;;;;;;157.77;26.17;;;4.20;99.90;;;;;;4934697;29;20042;-88
2022/01/13 07:26:02;;;;;;;148.48;27.50;;;3.70;99.90;;;;;;4930743;29;20043;-88
2022/01/13 07:28:30;;;;;;;121.47;25.20;;;3.70;99.90;;;;;;4933916;29;20039;-88
2022/01/13 07:30:56;;;;;;;164.65;28.40;;;3.80;99.90;;;;;;4914054;29;20051;-88
2022/01/13 07:33:22;;;;;;;156.77;28.75;;;3.70;99.90;;;;;;4936374;29;20382;-88
2022/01/13 07:35:49;;;;;;;190.48;29.55;;;3.60;99.90;;;;;;4938082;29;20111;-89
2022/01/13 07:38:15;;;;;;;145.60;28.17;;;4.70;99.90;;;;;;4943625;28;20087;-88
2022/01/13 07:40:41;;;;;;;149.70;27.95;;;3.70;99.90;;;;;;4940698;28;20565;-88
2022/01/13 07:43:07;;;;;;;192.45;28.90;;;3.70;99.90;;;;;;4954353;28;20125;-89
2022/01/13 07:45:32;;;;;;;192.07;33.13;;;3.70;99.90;;;;;;4916376;29;20072;-88
2022/01/13 07:47:58;;;;;;;175.13;30.15;;;3.70;99.90;;;;;;4954523;28;20516;-87
2022/01/13 07:50:24;;;;;;;173.93;30.63;;;3.80;99.90;;;;;;4936931;28;20039;-88
2022/01/13 07:52:49;;;;;;;215.85;32.63;;;4.30;99.90;;;;;;4940291;28;20042;-89
2022/01/13 07:55:15;;;;;;;160.57;30.10;;;3.70;99.90;;;;;;4940234;28;20528;-88
2022/01/13 07:57:41;;;;;;;165.82;30.13;;;3.70;99.90;;;;;;4968931;28;20126;-88
2022/01/13 08:00:09;;;;;;;204.50;31.92;;;3.80;99.90;;;;;;4934600;29;20054;-88
2022/01/13 08:02:35;;;;;;;170.07;28.17;;;3.80;99.90;;;;;;4955956;28;20039;-88
2022/01/13 08:05:01;;;;;;;150.75;29.52;;;3.80;99.90;;;;;;4955344;28;20045;-89
2022/01/13 08:07:27;;;;;;;183.77;29.15;;;4.40;99.90;;;;;;4929204;28;20046;-88
2022/01/13 08:09:53;;;;;;;146.70;26.65;;;3.80;99.90;;;;;;4961322;28;20054;-88
2022/01/13 08:12:18;;;;;;;147.68;26.90;;;3.80;99.90;;;;;;4924131;28;20039;-88
2022/01/13 08:14:44;;;;;;;168.63;27.17;;;4.50;99.90;;;;;;4923052;28;20039;-89
2022/01/13 08:17:19;;;;;;;165.30;28.83;;;3.80;99.90;;;;;;4936791;29;20047;-87
2022/01/13 08:19:45;;;;;;;126.43;26.05;;;4.20;99.90;;;;;;4941424;28;20122;-88
2022/01/13 08:22:15;;;;;;;171.68;25.25;;;4.00;99.90;;;;;;4936824;29;20504;-89
2022/01/13 08:24:42;;;;;;;155.55;29.00;;;3.80;99.90;;;;;;4956693;28;20050;-88
2022/01/13 08:27:07;;;;;;;138.82;25.52;;;4.00;99.90;;;;;;4955765;28;20047;-86
2022/01/13 08:29:33;;;;;;;134.27;25.25;;;3.90;99.90;;;;;;4919913;28;20174;-87
2022/01/13 08:31:59;;;;;;;150.15;26.55;;;3.90;99.90;;;;;;4951699;28;20099;-89
2022/01/13 08:34:26;;;;;;;135.43;24.20;;;3.90;99.90;;;;;;4949456;29;20057;-85
2022/01/13 08:36:52;;;;;;;153.18;28.20;;;4.60;99.90;;;;;;4963208;28;20094;-86
2022/01/13 08:39:18;;;;;;;138.93;24.90;;;4.00;99.90;;;;;;4955819;28;20058;-86
2022/01/13 08:41:45;;;;;;;115.55;22.83;;;4.00;99.90;;;;;;4920963;29;20125;-85
2022/01/13 08:44:11;;;;;;;121.82;23.58;;;4.20;99.90;;;;;;4949575;29;20094;-86
2022/01/13 08:46:37;;;;;;;145.95;28.80;;;4.60;99.90;;;;;;4932564;28;20460;-85
2022/01/13 08:49:03;;;;;;;133.45;26.50;;;4.50;99.90;;;;;;4944204;28;20045;-87
2022/01/13 08:51:29;;;;;;;146.32;27.10;;;4.10;99.90;;;;;;4958473;28;20039;-85
2022/01/13 08:53:54;;;;;;;142.23;27.95;;;4.30;99.90;;;;;;4924288;28;20061;-86
2022/01/13 08:56:21;;;;;;;122.25;26.58;;;4.10;99.90;;;;;;4936801;28;20097;-85
2022/01/13 08:58:47;;;;;;;136.07;26.15;;;4.10;99.90;;;;;;4951819;28;20126;-85
2022/01/13 09:01:13;;;;;;;149.48;26.85;;;4.30;99.90;;;;;;4935511;28;20031;-86
2022/01/13 09:03:39;;;;;;;146.07;27.55;;;4.30;99.90;;;;;;4949603;29;20038;-86
2022/01/13 09:06:06;;;;;;;139.73;28.52;;;4.10;99.90;;;;;;4928578;29;20037;-84
2022/01/13 09:08:31;;;;;;;152.52;28.15;;;4.10;99.90;;;;;;4956311;28;20512;-84
2022/01/13 09:10:57;;;;;;;155.00;28.33;;;4.10;99.90;;;;;;4923627;28;20042;-84
2022/01/13 09:13:24;;;;;;;162.70;26.92;;;4.10;99.90;;;;;;4937622;28;20046;-85
2022/01/13 09:15:57;;;;;;;119.70;25.77;;;4.10;99.90;;;;;;4948672;28;20046;-84
2022/01/13 09:18:33;;;;;;;137.15;27.40;;;4.10;99.90;;;;;;4951683;28;20408;-85
2022/01/13 09:20:59;;;;;;;117.03;24.02;;;4.30;99.90;;;;;;4934504;28;20074;-85
2022/01/13 09:23:25;;;;;;;110.13;23.75;;;4.20;99.90;;;;;;4918942;28;20456;-84
2022/01/13 09:25:52;;;;;;;147.15;26.30;;;4.20;99.90;;;;;;4934578;28;20067;-84
2022/01/13 09:28:18;;;;;;;117.20;25.85;;;4.30;99.90;;;;;;4932422;28;20050;-85
2022/01/13 09:30:44;;;;;;;145.10;26.17;;;4.10;99.90;;;;;;4952382;28;20046;-84
2022/01/13 09:33:10;;;;;;;145.70;25.98;;;4.20;99.90;;;;;;4939039;28;20089;-84
2022/01/13 09:35:36;;;;;;;167.50;28.08;;;4.20;99.90;;;;;;4927263;28;20039;-84
2022/01/13 09:38:02;;;;;;;157.85;27.08;;;4.20;99.90;;;;;;4939285;28;20062;-84
2022/01/13 09:40:28;;;;;;;130.68;26.48;;;4.20;99.90;;;;;;4939953;28;20043;-85
2022/01/13 09:42:55;;;;;;;133.52;25.65;;;4.30;99.90;;;;;;4921820;28;20065;-84
2022/01/13 09:45:22;;;;;;;149.50;27.33;;;4.60;99.90;;;;;;4955065;28;20094;-84
2022/01/13 09:47:48;;;;;;;127.55;25.55;;;4.80;99.90;;;;;;4938931;28;20077;-85
2022/01/13 09:50:17;;;;;;;126.53;25.65;;;4.30;99.90;;;;;;4941230;28;20358;-84
2022/01/13 09:52:44;;;;;;;140.88;26.48;;;4.30;99.90;;;;;;4971156;28;20429;-84
2022/01/13 09:55:11;;;;;;;130.25;26.30;;;4.40;99.90;;;;;;4925392;28;20062;-84
2022/01/13 09:57:42;;;;;;;150.90;29.40;;;4.30;99.90;;;;;;4939206;28;20035;-84
2022/01/13 10:00:08;;;;;;;143.63;26.45;;;4.40;99.90;;;;;;4955424;28;20070;-84
2022/01/13 10:02:34;;;;;;;133.10;27.63;;;4.40;99.90;;;;;;4952824;28;20045;-87
2022/01/13 10:05:00;;;;;;;119.85;27.25;;;4.40;99.90;;;;;;4933373;28;20043;-88
2022/01/13 10:07:37;;;;;;;127.35;27.35;;;4.40;99.90;;;;;;4921359;28;20058;-88
2022/01/13 10:10:15;;;;;;;161.25;28.95;;;4.40;99.90;;;;;;4935966;28;20070;-87
2022/01/13 10:12:43;;;;;;;142.10;27.52;;;4.40;99.90;;;;;;4956172;28;20047;-86
2022/01/13 10:18:06;;;;;;;122.88;25.23;;;4.40;99.90;;;;;;4955322;28;20523;-85
2022/01/13 10:20:33;;;;;;;140.40;27.02;;;4.50;99.90;;;;;;4950317;28;20038;-86
2022/01/13 10:23:10;;;;;;;134.20;25.63;;;4.40;99.90;;;;;;4953384;28;20047;-86
2022/01/13 10:25:38;;;;;;;151.38;29.77;;;4.60;99.90;;;;;;4954554;28;20404;-86
2022/01/13 10:28:21;;;;;;;125.93;26.20;;;4.50;99.90;;;;;;4937339;28;20047;-86
2022/01/13 10:30:53;;;;;;;141.27;27.10;;;4.50;99.90;;;;;;4960528;28;20055;-86
2022/01/13 10:33:25;;;;;;;147.33;28.20;;;4.70;99.90;;;;;;4937761;29;20047;-86
2022/01/13 10:35:54;;;;;;;153.93;30.08;;;4.50;99.90;;;;;;4938428;28;20049;-85
2022/01/13 10:38:21;;;;;;;134.75;25.63;;;4.50;99.90;;;;;;4956452;28;20058;-83
2022/01/13 10:40:48;;;;;;;156.13;27.13;;;5.40;99.90;;;;;;4954201;28;20070;-83
2022/01/13 10:43:24;;;;;;;124.53;27.40;;;4.50;99.90;;;;;;4938152;28;20073;-84
2022/01/13 10:45:56;;;;;;;142.80;26.00;;;4.90;99.90;;;;;;4953480;28;20685;-84
2022/01/13 10:48:27;;;;;;;131.68;26.63;;;4.60;99.90;;;;;;4973293;28;20125;-84
2022/01/13 10:50:57;;;;;;;140.73;28.13;;;4.60;99.90;;;;;;4973293;28;20042;-85
2022/01/13 10:53:34;;;;;;;120.40;26.23;;;4.60;99.90;;;;;;4973585;28;20048;-84
2022/01/13 10:56:11;;;;;;;139.70;28.73;;;4.60;99.90;;;;;;4973535;28;20129;-84
2022/01/13 10:58:41;;;;;;;143.75;27.27;;;4.80;99.90;;;;;;4953932;28;20500;-84
2022/01/13 11:01:09;;;;;;;132.23;26.70;;;4.60;99.90;;;;;;4943087;28;20142;-85
2022/01/13 11:03:39;;;;;;;131.05;26.63;;;4.60;99.90;;;;;;4982722;28;20073;-86
2022/01/13 11:06:08;;;;;;;130.70;27.77;;;4.60;99.90;;;;;;4982390;28;20049;-86
2022/01/13 11:08:41;;;;;;;136.90;28.70;;;5.50;99.90;;;;;;4974508;28;20038;-84
2022/01/13 11:11:17;;;;;;;120.50;26.45;;;4.70;99.90;;;;;;4963393;28;20129;-83
2022/01/13 11:14:07;;;;;;;130.05;27.55;;;4.70;99.90;;;;;;4985496;28;20039;-83
2022/01/13 11:16:34;;;;;;;107.57;23.73;;;4.70;99.90;;;;;;4964071;28;20038;-83
2022/01/13 11:19:00;;;;;;;123.10;26.38;;;4.70;99.90;;;;;;4958020;28;20471;-82
2022/01/13 11:21:29;;;;;;;89.45;22.60;;;4.70;99.90;;;;;;4970918;28;20039;-83
2022/01/13 11:23:56;;;;;;;113.38;26.00;;;4.70;99.90;;;;;;4957777;28;20046;-84
2022/01/13 11:26:27;;;;;;;104.30;24.48;;;4.70;99.90;;;;;;4945295;28;20038;-84
2022/01/13 11:28:56;;;;;;;98.20;23.63;;;4.70;99.90;;;;;;4959548;28;20045;-84
2022/01/13 11:31:22;;;;;;;83.70;22.55;;;4.80;99.90;;;;;;4945579;28;20133;-83
2022/01/13 11:33:49;;;;;;;89.65;23.10;;;4.80;99.90;;;;;;4954641;28;20100;-83
2022/01/13 11:36:16;;;;;;;96.32;23.17;;;4.80;99.90;;;;;;4941493;28;20039;-80
2022/01/13 11:38:56;;;;;;;107.10;23.50;;;4.80;99.90;;;;;;4950969;28;20051;-80
2022/01/13 11:41:22;;;;;;;97.65;22.73;;;4.80;99.90;;;;;;4956690;28;20118;-80
2022/01/13 11:43:48;;;;;;;71.85;21.17;;;5.20;99.90;;;;;;4947381;29;20078;-81
2022/01/13 11:46:15;;;;;;;104.25;24.23;;;4.80;99.90;;;;;;4946620;29;20043;-80
2022/01/13 11:48:53;;;;;;;85.53;23.17;;;4.80;99.90;;;;;;4955147;28;20049;-80
2022/01/13 11:51:21;;;;;;;83.43;23.20;;;4.80;99.90;;;;;;4944597;29;20078;-82
2022/01/13 11:53:54;;;;;;;94.07;23.65;;;4.80;99.90;;;;;;4922838;28;20047;-81
2022/01/13 11:56:20;;;;;;;85.82;21.88;;;4.80;99.90;;;;;;4938251;28;20031;-81
2022/01/13 11:58:47;;;;;;;89.05;20.63;;;4.80;99.90;;;;;;4963136;28;20062;-81
2022/01/13 12:01:42;;;;;;;78.47;20.40;;;4.70;99.90;;;;;;4971014;28;20050;-81
2022/01/13 12:04:08;;;;;;;74.30;20.70;;;5.00;99.90;;;;;;4944324;28;20047;-80
2022/01/13 12:06:41;;;;;;;91.88;24.38;;;4.70;99.90;;;;;;4953151;28;20134;-81
2022/01/13 12:09:22;;;;;;;86.05;22.80;;;4.70;99.90;;;;;;4972077;28;20089;-82
2022/01/13 12:11:55;;;;;;;95.97;23.40;;;4.70;99.90;;;;;;4942575;28;20073;-83
2022/01/13 12:14:24;;;;;;;102.03;23.50;;;4.70;99.90;;;;;;4945733;28;20570;-82
2022/01/13 12:17:08;;;;;;;104.30;23.85;;;4.70;99.90;;;;;;4950402;29;20098;-81
2022/01/13 12:19:43;;;;;;;86.35;20.83;;;4.70;99.90;;;;;;4953263;28;20118;-82
2022/01/13 12:22:29;;;;;;;71.95;21.63;;;4.70;99.90;;;;;;4949978;29;20066;-81
2022/01/13 12:25:00;;;;;;;94.88;23.20;;;4.70;99.90;;;;;;4966226;28;20039;-80
2022/01/13 12:27:50;;;;;;;105.80;24.35;;;4.70;99.90;;;;;;4969267;28;20045;-81
2022/01/13 12:30:21;;;;;;;82.30;23.92;;;4.70;99.90;;;;;;4937339;28;20050;-87
2022/01/13 12:32:58;;;;;;;98.63;23.05;;;4.70;99.90;;;;;;4962566;28;20043;-84
2022/01/13 12:35:39;;;;;;;75.93;20.08;;;4.80;99.90;;;;;;4968584;28;20055;-84
2022/01/13 12:38:20;;;;;;;85.30;22.42;;;4.70;99.90;;;;;;4947233;28;20082;-84
2022/01/13 12:40:54;;;;;;;79.10;19.30;;;4.70;99.90;;;;;;4959448;28;20090;-86
2022/01/13 12:46:09;;;;;;;107.38;24.63;;;4.70;99.90;;;;;;4976085;28;20068;-86
2022/01/13 12:48:37;;;;;;;91.18;23.35;;;4.80;99.90;;;;;;4970502;28;20314;-84
2022/01/13 12:51:03;;;;;;;101.22;24.20;;;4.70;99.90;;;;;;4966310;28;20584;-84
2022/01/13 12:53:35;;;;;;;86.28;21.48;;;4.70;99.90;;;;;;4959103;28;20046;-84
2022/01/13 12:56:12;;;;;;;91.00;23.17;;;4.80;99.90;;;;;;4958247;28;20046;-84
2022/01/13 12:58:40;;;;;;;73.60;21.35;;;4.70;99.90;;;;;;4959703;28;20495;-84
2022/01/13 13:01:20;;;;;;;92.47;23.85;;;4.70;99.90;;;;;;4959228;28;20066;-84
2022/01/13 13:04:02;;;;;;;81.47;22.73;;;4.70;99.90;;;;;;4972667;28;20097;-84